Crandall, Indiana
Current Conditions -  °F | °C
As of 11:56 AM on Sunday 23 Nov 2014 (Local Time) from KSDF Reporting Station
Overcast Overcast  
Wind Chill: 58°   Ceiling: 4100
Heat Index: 58°   Visibility: 10mi
Dew Point: 47°   Wind: 12mph
Humidity: 67%   Direction: 130°SE
Pressure: 29.79"   Gusts: NA
Location:  38.29°N, 86.07°W
Report Text: KSDF 231656Z 13010KT 10SM BKN041 OVC060 14/08 A2979 RMK AO2 RAE1559B40E55 SLP087 T01440083 PNO $
Loading
Personal Weather Stations






























Interactive Weather Map New forecast layout! Learn more

10-Day Weather Forecast

Advertisements
Track Severe Weather on mobile